createdAt,value
2023-04-04T00:00:59.412Z,-0.60
2023-04-04T00:03:27.809Z,-0.60
2023-04-04T00:05:56.533Z,-0.60
2023-04-04T00:10:59.721Z,-0.60
2023-04-04T00:13:30.124Z,-0.60
2023-04-04T00:15:58.910Z,-0.60
2023-04-04T00:18:27.380Z,-0.60
2023-04-04T00:20:55.927Z,-0.60
2023-04-04T00:23:24.193Z,-0.60
2023-04-04T00:25:53.478Z,-0.60
2023-04-04T00:28:23.252Z,-0.70
2023-04-04T00:30:53.476Z,-0.70
2023-04-04T00:33:21.918Z,-1.00
2023-04-04T00:38:19.529Z,-0.70
2023-04-04T00:40:51.539Z,-0.80
2023-04-04T00:43:20.577Z,-0.70
2023-04-04T00:45:49.038Z,-0.80
2023-04-04T00:48:19.566Z,-0.80
2023-04-04T00:50:48.020Z,-0.90
2023-04-04T00:53:16.451Z,-0.80
2023-04-04T00:55:44.970Z,-0.80
2023-04-04T00:58:13.884Z,-0.80
2023-04-04T01:00:43.147Z,-0.80
2023-04-04T01:03:12.877Z,-0.80
2023-04-04T01:05:43.878Z,-0.70
2023-04-04T01:08:12.647Z,-1.00
2023-04-04T01:10:43.666Z,-0.80
2023-04-04T01:15:41.657Z,-0.90
2023-04-04T01:18:14.183Z,-0.90
2023-04-04T01:20:55.639Z,-0.90
2023-04-04T01:23:37.746Z,-0.90
2023-04-04T01:26:09.492Z,-0.90
2023-04-04T01:28:38.191Z,-0.90
2023-04-04T01:31:15.708Z,-0.90
2023-04-04T01:33:49.429Z,-0.90
2023-04-04T01:36:27.006Z,-0.90
2023-04-04T01:39:06.444Z,-1.00
2023-04-04T01:41:36.753Z,-1.00
2023-04-04T01:44:06.480Z,1.80
2023-04-04T01:46:37.228Z,-1.00
2023-04-04T01:49:06.058Z,-1.30
2023-04-04T01:51:36.789Z,-1.10
2023-04-04T01:54:06.251Z,-1.10
2023-04-04T01:56:36.432Z,-1.10
2023-04-04T01:59:04.902Z,-1.20
2023-04-04T02:01:33.379Z,-1.30
2023-04-04T02:04:02.486Z,-1.30
2023-04-04T02:06:31.270Z,-1.30
2023-04-04T02:11:28.497Z,-0.20
2023-04-04T02:13:58.631Z,-1.40
2023-04-04T02:21:27.235Z,-1.30
2023-04-04T02:23:55.891Z,-1.30
2023-04-04T02:26:24.297Z,-1.30
2023-04-04T02:31:23.054Z,-1.30
2023-04-04T02:33:54.196Z,-1.30
2023-04-04T02:38:54.234Z,-1.40
2023-04-04T02:41:25.834Z,-1.40
2023-04-04T02:43:54.363Z,-1.50
2023-04-04T02:46:24.202Z,-1.40
2023-04-04T02:48:59.273Z,-1.50
2023-04-04T02:51:27.872Z,-1.50
2023-04-04T02:53:59.150Z,-1.50
2023-04-04T02:56:33.931Z,-1.50
2023-04-04T02:59:03.707Z,-1.50
2023-04-04T03:01:33.619Z,-1.50
2023-04-04T03:04:05.786Z,-1.50
2023-04-04T03:06:35.677Z,-1.40
2023-04-04T03:09:05.573Z,-1.50
2023-04-04T03:11:34.115Z,-1.50
2023-04-04T03:14:03.156Z,-1.50
2023-04-04T03:16:38.613Z,-1.50
2023-04-04T03:19:08.170Z,-1.50
2023-04-04T03:21:36.749Z,-1.50
2023-04-04T03:24:05.914Z,-1.60
2023-04-04T03:26:34.270Z,-1.60
2023-04-04T03:29:04.628Z,-1.70
2023-04-04T03:31:33.054Z,-1.70
2023-04-04T03:34:04.494Z,-1.70
2023-04-04T03:36:32.895Z,-1.70
2023-04-04T03:41:31.106Z,-1.20
2023-04-04T03:43:59.469Z,-1.70
2023-04-04T03:48:58.162Z,-1.70
2023-04-04T03:51:28.578Z,-1.70
2023-04-04T03:53:57.819Z,-1.70
2023-04-04T03:58:56.695Z,-1.70
2023-04-04T04:01:25.559Z,-1.70
2023-04-04T04:03:54.337Z,-1.70
2023-04-04T04:06:22.737Z,-1.80
2023-04-04T04:08:52.831Z,-1.80
2023-04-04T04:11:21.377Z,-1.80
2023-04-04T04:13:50.169Z,-1.80
2023-04-04T04:16:19.482Z,-1.80
2023-04-04T04:18:49.846Z,-1.80
2023-04-04T04:21:26.894Z,-1.80
2023-04-04T04:23:56.770Z,-1.90
2023-04-04T04:26:25.143Z,-1.90
2023-04-04T04:28:54.474Z,-1.90
2023-04-04T04:31:29.660Z,-1.90
2023-04-04T04:33:58.832Z,-2.00
2023-04-04T04:39:16.796Z,-1.90
2023-04-04T04:41:58.609Z,-2.00
2023-04-04T04:44:27.697Z,-1.90
2023-04-04T04:46:57.887Z,-3.00
2023-04-04T04:49:27.441Z,-2.00
2023-04-04T04:51:56.821Z,-2.00
2023-04-04T04:54:26.700Z,-2.00
2023-04-04T04:56:56.774Z,-2.00
2023-04-04T05:01:55.343Z,-2.10
2023-04-04T05:04:25.379Z,-2.10
2023-04-04T05:07:02.095Z,-2.20
2023-04-04T05:09:32.376Z,-2.20
2023-04-04T05:12:01.030Z,-0.20
2023-04-04T05:14:39.005Z,-2.20
2023-04-04T05:19:37.632Z,-2.20
2023-04-04T05:22:08.735Z,-2.20
2023-04-04T05:24:46.369Z,-2.20
2023-04-04T05:27:18.414Z,-2.30
2023-04-04T05:29:53.463Z,-1.60
2023-04-04T05:32:23.632Z,-2.20
2023-04-04T05:37:35.537Z,-1.90
2023-04-04T05:40:08.200Z,-1.80
2023-04-04T05:42:37.440Z,-0.80
2023-04-04T05:45:09.064Z,-1.50
2023-04-04T05:47:37.937Z,-1.40
2023-04-04T05:52:38.501Z,-0.90
2023-04-04T05:55:12.907Z,-0.70
2023-04-04T05:57:50.231Z,-0.10
2023-04-04T06:00:24.462Z,-0.10
2023-04-04T06:03:03.713Z,0.10
2023-04-04T06:05:32.638Z,0.30
2023-04-04T06:08:01.456Z,0.60
2023-04-04T06:10:32.134Z,0.80
2023-04-04T06:15:30.844Z,1.10
2023-04-04T06:17:59.216Z,1.10
2023-04-04T06:23:01.054Z,1.60
2023-04-04T06:25:32.230Z,1.70
2023-04-04T06:28:01.564Z,1.90
2023-04-04T06:30:30.321Z,-0.80
2023-04-04T06:32:59.380Z,2.20
2023-04-04T06:35:30.061Z,2.50
2023-04-04T06:38:04.261Z,2.50
2023-04-04T06:40:34.353Z,2.60
2023-04-04T06:43:03.400Z,2.90
2023-04-04T06:45:39.994Z,3.10
2023-04-04T06:48:09.084Z,3.20
2023-04-04T06:50:38.872Z,3.40
2023-04-04T06:53:12.301Z,3.50
2023-04-04T06:55:42.620Z,3.30
2023-04-04T06:58:11.249Z,3.40
2023-04-04T07:00:39.767Z,3.40
2023-04-04T07:03:08.371Z,3.60
2023-04-04T07:05:40.284Z,3.70
2023-04-04T07:08:08.680Z,3.80
2023-04-04T07:10:38.077Z,3.60
2023-04-04T07:13:09.789Z,3.70
2023-04-04T07:15:38.332Z,3.90
2023-04-04T07:18:07.997Z,4.10
2023-04-04T07:20:36.462Z,4.50
2023-04-04T07:23:04.777Z,4.60
2023-04-04T07:25:33.393Z,4.60
2023-04-04T07:28:11.592Z,5.40
2023-04-04T07:30:43.358Z,5.00
2023-04-04T07:35:40.706Z,5.20
2023-04-04T07:38:09.563Z,5.20
2023-04-04T07:40:38.156Z,5.50
2023-04-04T07:43:07.380Z,5.70
2023-04-04T07:45:36.366Z,8.00
2023-04-04T07:48:06.811Z,5.80
2023-04-04T07:50:35.132Z,6.00
2023-04-04T07:53:03.494Z,5.90
2023-04-04T07:55:31.832Z,6.00
2023-04-04T07:58:00.157Z,6.20
2023-04-04T08:00:28.562Z,6.60
2023-04-04T08:02:59.472Z,6.50
2023-04-04T08:05:29.770Z,9.00
2023-04-04T08:07:58.877Z,6.30
2023-04-04T08:10:27.859Z,5.60
2023-04-04T08:12:56.211Z,6.10
2023-04-04T08:15:25.043Z,6.60
2023-04-04T08:17:53.655Z,6.30
2023-04-04T08:20:22.532Z,5.10
2023-04-04T08:22:52.532Z,5.10
2023-04-04T08:25:21.036Z,5.80
2023-04-04T08:27:49.460Z,6.30
2023-04-04T08:32:46.808Z,5.90
2023-04-04T08:35:15.916Z,5.50
2023-04-04T08:37:46.915Z,5.80
2023-04-04T08:40:17.620Z,5.90
2023-04-04T08:42:48.288Z,5.90
2023-04-04T08:45:20.214Z,5.40
2023-04-04T08:47:51.629Z,7.40
2023-04-04T08:50:21.592Z,7.90
2023-04-04T08:52:50.956Z,6.60
2023-04-04T08:55:21.202Z,5.80
2023-04-04T08:57:49.614Z,6.20
2023-04-04T09:00:21.508Z,6.30
2023-04-04T09:02:58.886Z,5.70
2023-04-04T09:05:28.252Z,6.10
2023-04-04T09:07:57.984Z,5.20
2023-04-04T09:10:29.487Z,5.20
2023-04-04T09:13:12.611Z,4.90
2023-04-04T09:15:49.557Z,4.70
2023-04-04T09:18:19.082Z,5.00
2023-04-04T09:20:48.886Z,4.60
2023-04-04T09:23:20.632Z,4.40
2023-04-04T09:28:25.518Z,4.90
2023-04-04T09:30:54.702Z,4.80
2023-04-04T09:33:25.694Z,4.70
2023-04-04T09:35:59.401Z,5.10
2023-04-04T09:38:30.948Z,6.30
2023-04-04T09:41:01.132Z,7.40
2023-04-04T09:43:32.700Z,7.80
2023-04-04T09:46:02.372Z,8.40
2023-04-04T09:48:34.743Z,7.80
2023-04-04T09:51:07.052Z,7.20
2023-04-04T09:53:42.173Z,6.70
2023-04-04T09:56:12.851Z,6.60
2023-04-04T09:58:52.483Z,7.50
2023-04-04T10:01:30.926Z,8.70
2023-04-04T10:03:59.847Z,9.50
2023-04-04T10:06:28.762Z,10.10
2023-04-04T10:08:58.486Z,10.80
2023-04-04T10:11:34.434Z,10.90
2023-04-04T10:14:04.744Z,11.20
2023-04-04T10:16:37.963Z,11.00
2023-04-04T10:19:08.842Z,11.20
2023-04-04T10:24:10.082Z,11.10
2023-04-04T10:26:40.009Z,11.30
2023-04-04T10:29:08.455Z,11.60
2023-04-04T10:31:43.704Z,11.70
2023-04-04T10:34:21.800Z,11.00
2023-04-04T10:36:55.008Z,10.20
2023-04-04T10:39:29.661Z,10.20
2023-04-04T10:42:01.937Z,10.10
2023-04-04T10:44:34.293Z,9.30
2023-04-04T10:47:15.652Z,10.20
2023-04-04T10:49:46.784Z,10.30
2023-04-04T10:52:18.664Z,10.00
2023-04-04T10:54:48.586Z,9.40
2023-04-04T10:57:19.259Z,8.80
2023-04-04T11:00:05.441Z,9.90
2023-04-04T11:02:54.596Z,10.30
2023-04-04T11:05:26.681Z,10.30
2023-04-04T11:10:34.610Z,9.50
2023-04-04T11:13:14.165Z,9.00
2023-04-04T11:15:57.908Z,9.00
2023-04-04T11:18:47.883Z,9.40
2023-04-04T11:21:18.434Z,9.60
2023-04-04T11:24:16.773Z,9.60
2023-04-04T11:26:47.151Z,10.20
2023-04-04T11:29:52.972Z,11.00
2023-04-04T11:32:52.979Z,11.60
2023-04-04T11:35:29.242Z,12.00
2023-04-04T11:38:03.716Z,12.30
2023-04-04T11:40:41.272Z,12.30
2023-04-04T11:43:13.585Z,12.00
2023-04-04T11:45:47.907Z,12.50
2023-04-04T11:48:19.905Z,12.90
2023-04-04T11:50:53.270Z,12.90
2023-04-04T11:53:22.196Z,12.50
2023-04-04T11:55:54.847Z,11.70
2023-04-04T11:58:24.226Z,10.10
2023-04-04T12:00:54.093Z,9.00
2023-04-04T12:03:23.802Z,8.60
2023-04-04T12:05:52.926Z,8.10
2023-04-04T12:08:23.955Z,7.60
2023-04-04T12:10:53.549Z,7.40
2023-04-04T12:13:21.885Z,8.30
2023-04-04T12:15:51.199Z,9.60
2023-04-04T12:18:24.393Z,10.60
2023-04-04T12:20:53.460Z,11.80
2023-04-04T12:23:23.856Z,12.50
2023-04-04T12:25:54.966Z,12.90
2023-04-04T12:28:24.299Z,13.50
2023-04-04T12:30:53.466Z,13.60
2023-04-04T12:33:24.531Z,13.50
2023-04-04T12:35:54.896Z,13.40
2023-04-04T12:38:23.600Z,13.20
2023-04-04T12:40:53.104Z,13.50
2023-04-04T12:43:21.876Z,13.10
2023-04-04T12:45:52.639Z,11.90
2023-04-04T12:48:22.848Z,10.60
2023-04-04T12:50:58.346Z,9.90
2023-04-04T12:53:30.200Z,9.50
2023-04-04T12:56:03.694Z,8.70
2023-04-04T12:58:35.946Z,8.90
2023-04-04T13:01:08.320Z,8.80
2023-04-04T13:03:37.968Z,8.80
2023-04-04T13:06:15.297Z,8.60
2023-04-04T13:08:54.302Z,8.30
2023-04-04T13:11:23.753Z,7.80
2023-04-04T13:14:03.392Z,7.60
2023-04-04T13:16:35.623Z,7.30
2023-04-04T13:19:05.197Z,8.40
2023-04-04T13:21:36.304Z,9.80
2023-04-04T13:24:05.140Z,10.70
2023-04-04T13:26:33.438Z,11.80
2023-04-04T13:29:01.857Z,11.90
2023-04-04T13:31:30.241Z,11.50
2023-04-04T13:33:58.511Z,10.80
2023-04-04T13:36:28.401Z,8.90
2023-04-04T13:38:58.276Z,8.70
2023-04-04T13:41:26.707Z,9.30
2023-04-04T13:43:56.600Z,7.90
2023-04-04T13:46:25.117Z,7.60
2023-04-04T13:48:53.546Z,7.40
2023-04-04T13:51:24.443Z,7.40
2023-04-04T13:53:52.804Z,7.50
2023-04-04T13:56:24.190Z,7.90
2023-04-04T13:58:54.019Z,8.10
2023-04-04T14:01:23.589Z,8.70
2023-04-04T14:03:52.716Z,9.60
2023-04-04T14:06:21.179Z,10.40
2023-04-04T14:08:49.808Z,10.90
2023-04-04T14:11:18.246Z,10.90
2023-04-04T14:13:48.092Z,11.10
2023-04-04T14:16:16.920Z,12.10
2023-04-04T14:18:45.569Z,12.20
2023-04-04T14:21:13.937Z,12.10
2023-04-04T14:23:42.232Z,11.60
2023-04-04T14:26:10.529Z,10.70
2023-04-04T14:31:09.366Z,10.80
2023-04-04T14:33:37.904Z,11.10
2023-04-04T14:36:06.627Z,10.80
2023-04-04T14:38:34.905Z,10.90
2023-04-04T14:41:03.314Z,8.00
2023-04-04T14:43:31.605Z,9.10
2023-04-04T14:46:00.180Z,8.80
2023-04-04T14:48:29.888Z,8.40
2023-04-04T14:50:58.363Z,8.30
2023-04-04T14:53:27.542Z,9.30
2023-04-04T14:55:55.998Z,10.50
2023-04-04T14:58:24.296Z,11.80
2023-04-04T15:00:52.878Z,12.50
2023-04-04T15:03:21.535Z,12.90
2023-04-04T15:05:51.840Z,12.70
2023-04-04T15:08:20.287Z,12.00
2023-04-04T15:10:48.694Z,10.90
2023-04-04T15:13:17.328Z,10.00
2023-04-04T15:15:46.228Z,9.20
2023-04-04T15:18:14.598Z,8.50
2023-04-04T15:23:14.021Z,7.90
2023-04-04T15:25:42.611Z,8.60
2023-04-04T15:30:39.872Z,11.00
2023-04-04T15:33:08.323Z,11.10
2023-04-04T15:35:37.011Z,11.90
2023-04-04T15:38:05.435Z,12.40
2023-04-04T15:40:35.167Z,12.40
2023-04-04T15:43:03.510Z,12.40
2023-04-04T15:45:32.873Z,13.00
2023-04-04T15:48:01.394Z,13.10
2023-04-04T15:50:30.155Z,12.20
2023-04-04T15:52:58.763Z,11.50
2023-04-04T15:55:29.441Z,10.50
2023-04-04T15:57:59.207Z,9.40
2023-04-04T16:00:29.349Z,8.40
2023-04-04T16:02:59.249Z,7.90
2023-04-04T16:05:28.429Z,5.10
2023-04-04T16:07:56.765Z,8.40
2023-04-04T16:12:54.077Z,9.00
2023-04-04T16:15:23.811Z,8.90
2023-04-04T16:17:53.805Z,9.00
2023-04-04T16:20:22.422Z,9.00
2023-04-04T16:22:50.878Z,9.10
2023-04-04T16:25:19.804Z,9.30
2023-04-04T16:30:17.314Z,9.40
2023-04-04T16:32:47.795Z,9.30
2023-04-04T16:35:16.472Z,8.80
2023-04-04T16:37:44.825Z,8.30
2023-04-04T16:45:16.721Z,7.00
2023-04-04T16:47:46.377Z,6.60
2023-04-04T16:50:14.787Z,6.30
2023-04-04T16:55:11.932Z,6.00
2023-04-04T16:57:41.501Z,5.70
2023-04-04T17:00:11.241Z,5.50
2023-04-04T17:02:45.357Z,5.30
2023-04-04T17:05:16.225Z,5.10
2023-04-04T17:07:45.028Z,5.00
2023-04-04T17:12:44.971Z,4.90
2023-04-04T17:15:14.532Z,4.70
2023-04-04T17:17:46.726Z,4.60
2023-04-04T17:20:19.214Z,5.20
2023-04-04T17:22:49.754Z,4.40
2023-04-04T17:27:49.191Z,4.10
2023-04-04T17:30:17.655Z,4.10
2023-04-04T17:35:17.609Z,3.80
2023-04-04T17:37:45.935Z,3.70
2023-04-04T17:40:15.249Z,3.60
2023-04-04T17:42:43.613Z,3.40
2023-04-04T17:45:12.613Z,3.30
2023-04-04T17:47:41.143Z,3.20
2023-04-04T17:50:10.835Z,3.10
2023-04-04T17:52:40.873Z,3.00
2023-04-04T17:55:11.360Z,2.90
2023-04-04T17:57:39.899Z,2.80
2023-04-04T18:00:10.977Z,2.70
2023-04-04T18:02:39.367Z,2.70
2023-04-04T18:05:10.161Z,2.50
2023-04-04T18:07:39.957Z,2.20
2023-04-04T18:10:09.954Z,1.80
2023-04-04T18:12:39.230Z,1.60
2023-04-04T18:17:38.398Z,1.40
2023-04-04T18:20:10.565Z,1.20
2023-04-04T18:22:43.061Z,0.90
2023-04-04T18:25:11.927Z,0.80
2023-04-04T18:27:40.409Z,0.60
2023-04-04T18:30:10.616Z,0.60
2023-04-04T18:35:08.997Z,0.40
2023-04-04T18:37:37.360Z,0.40
2023-04-04T18:40:09.235Z,0.40
2023-04-04T18:42:37.823Z,0.30
2023-04-04T18:45:09.904Z,0.30
2023-04-04T18:47:39.266Z,0.30
2023-04-04T18:50:09.606Z,-0.50
2023-04-04T18:52:37.985Z,0.20
2023-04-04T18:57:38.317Z,0.10
2023-04-04T19:00:09.746Z,0.10
2023-04-04T19:02:38.438Z,0.10
2023-04-04T19:05:09.185Z,0.10
2023-04-04T19:07:39.110Z,0.20
2023-04-04T19:12:38.905Z,0.20
2023-04-04T19:15:08.702Z,0.20
2023-04-04T19:20:07.378Z,0.20
2023-04-04T19:22:36.188Z,0.10
2023-04-04T19:27:34.945Z,0.10
2023-04-04T19:30:12.513Z,0.10
2023-04-04T19:35:24.151Z,0.10
2023-04-04T19:37:52.484Z,0.10
2023-04-04T19:40:49.991Z,0.10
2023-04-04T19:43:23.104Z,0.10
2023-04-04T19:45:53.546Z,0.10
2023-04-04T19:48:46.145Z,-0.10
2023-04-04T19:51:49.594Z,0.10
2023-04-04T19:54:24.965Z,0.10
2023-04-04T19:57:01.222Z,0.00
2023-04-04T20:00:01.933Z,0.00
2023-04-04T20:02:57.104Z,-0.90
2023-04-04T20:06:06.107Z,0.00
2023-04-04T20:08:44.381Z,-0.10
2023-04-04T20:11:13.961Z,-0.10
2023-04-04T20:13:43.139Z,-0.10
2023-04-04T20:16:15.674Z,-0.10
2023-04-04T20:18:46.157Z,-0.10
2023-04-04T20:21:17.826Z,-0.10
2023-04-04T20:23:52.480Z,-0.10
2023-04-04T20:26:52.463Z,-0.10
2023-04-04T20:29:23.192Z,-0.10
2023-04-04T20:31:55.482Z,-0.10
2023-04-04T20:34:50.292Z,0.00
2023-04-04T20:37:22.793Z,-0.20
2023-04-04T20:39:55.780Z,-0.10
2023-04-04T20:42:41.884Z,-0.10
2023-04-04T20:45:46.577Z,-0.10
2023-04-04T20:48:38.716Z,-0.10
2023-04-04T20:51:28.705Z,-0.10
2023-04-04T20:54:00.052Z,-0.10
2023-04-04T20:56:52.439Z,-0.10
2023-04-04T20:59:34.058Z,-0.10
2023-04-04T21:04:49.742Z,-0.10
2023-04-04T21:07:41.377Z,-0.20
2023-04-04T21:10:24.659Z,-0.20
2023-04-04T21:12:53.898Z,-0.40
2023-04-04T21:15:28.631Z,0.60
2023-04-04T21:17:59.973Z,-0.50
2023-04-04T21:21:18.632Z,-0.50
2023-04-04T21:23:55.598Z,-0.50
2023-04-04T21:26:35.758Z,-0.50
2023-04-04T21:29:07.762Z,-0.50
2023-04-04T21:31:39.573Z,-0.40
2023-04-04T21:34:15.166Z,-2.60
2023-04-04T21:36:46.267Z,-0.50
2023-04-04T21:39:22.152Z,-0.40
2023-04-04T21:41:54.771Z,-0.70
2023-04-04T21:44:24.640Z,-0.70
2023-04-04T21:49:23.088Z,-0.70
2023-04-04T21:51:52.984Z,-0.70
2023-04-04T21:56:50.213Z,-0.70
2023-04-04T21:59:18.659Z,-0.60
2023-04-04T22:01:46.903Z,-0.60
2023-04-04T22:04:15.383Z,-0.70
2023-04-04T22:06:43.963Z,-0.70
2023-04-04T22:09:16.120Z,-0.70
2023-04-04T22:14:17.647Z,-1.50
2023-04-04T22:19:15.318Z,-0.80
2023-04-04T22:21:48.248Z,-0.80
2023-04-04T22:24:18.826Z,-0.70
2023-04-04T22:26:47.467Z,-0.90
2023-04-04T22:29:16.047Z,-0.70
2023-04-04T22:34:15.147Z,-0.80
2023-04-04T22:36:44.599Z,-0.80
2023-04-04T22:39:16.108Z,-0.80
2023-04-04T22:41:46.186Z,-0.80
2023-04-04T22:44:14.536Z,-0.80
2023-04-04T22:46:43.018Z,-0.80
2023-04-04T22:49:11.321Z,-0.80
2023-04-04T22:51:45.780Z,-0.80
2023-04-04T22:54:15.650Z,-0.80
2023-04-04T22:56:46.074Z,-0.90
2023-04-04T22:59:14.931Z,-0.80
2023-04-04T23:01:43.342Z,-0.80
2023-04-04T23:04:11.920Z,-0.80
2023-04-04T23:09:09.315Z,-0.80
2023-04-04T23:11:38.850Z,-0.80
2023-04-04T23:14:09.945Z,-0.80
2023-04-04T23:16:40.107Z,-0.80
2023-04-04T23:19:08.545Z,-0.70
2023-04-04T23:21:37.509Z,-0.70
2023-04-04T23:24:07.785Z,-0.90
2023-04-04T23:26:36.333Z,-0.60
2023-04-04T23:29:05.710Z,-0.60
2023-04-04T23:31:36.402Z,-0.50
2023-04-04T23:36:34.423Z,-0.50
2023-04-04T23:39:03.454Z,-0.40
2023-04-04T23:41:32.237Z,-0.40
2023-04-04T23:44:01.029Z,-3.40
2023-04-04T23:46:34.185Z,-0.50
2023-04-04T23:49:04.109Z,-0.50
2023-04-04T23:51:38.303Z,-0.50
2023-04-04T23:54:07.575Z,-0.60
2023-04-04T23:56:37.175Z,-0.70
2023-04-04T23:59:06.537Z,-0.60
